Time;durP1;ratioP1;P1;durP2;ratioP2;P2;SDS_P1;SDS_P2;PMS_P1;PMS_P2;Temp;Humidity;BMP_temperature;BMP_pressure;BME280_temperature;BME280_humidity;BME280_pressure;Samples;Min_cycle;Max_cycle;Signal;HPM_P1;HPM_P2
2021/11/21 00:13:20;;;;;;;17.70;9.95;;;;;;;10.56;100.00;99562.27;713693;1200;114841;-73
2021/11/21 00:28:23;;;;;;;16.68;9.15;;;;;;;10.51;100.00;99558.47;713613;1203;114143;-73
2021/11/21 00:43:25;;;;;;;16.88;10.58;;;;;;;10.54;100.00;99539.80;713758;1203;113638;-73
2021/11/21 00:58:28;;;;;;;15.37;9.37;;;;;;;10.69;100.00;99532.18;713702;1203;114501;-75
2021/11/21 01:13:31;;;;;;;13.73;9.38;;;;;;;10.79;100.00;99527.66;713817;1200;113574;-73
2021/11/21 01:28:33;;;;;;;14.10;9.25;;;;;;;10.81;100.00;99518.66;713857;1203;113124;-73
2021/11/21 01:43:36;;;;;;;14.03;8.83;;;;;;;10.80;100.00;99488.14;714004;1180;113694;-74
2021/11/21 01:58:39;;;;;;;14.23;9.50;;;;;;;10.51;100.00;99461.44;713823;1178;114337;-74
2021/11/21 02:13:41;;;;;;;16.00;8.80;;;;;;;10.37;100.00;99444.46;713749;1200;113585;-74
2021/11/21 02:28:46;;;;;;;17.78;9.75;;;;;;;10.06;100.00;99419.50;713907;1202;114214;-74
2021/11/21 02:43:48;;;;;;;15.30;9.43;;;;;;;10.00;100.00;99412.23;713916;1176;113881;-73
2021/11/21 02:58:50;;;;;;;15.53;9.45;;;;;;;10.01;100.00;99407.84;713865;1203;114274;-74
2021/11/21 03:13:54;;;;;;;16.93;10.90;;;;;;;9.90;100.00;99396.63;713711;1200;115427;-74
2021/11/21 03:28:58;;;;;;;17.48;10.55;;;;;;;9.88;100.00;99392.51;713920;1177;114340;-74
2021/11/21 03:44:07;;;;;;;19.63;11.35;;;;;;;9.88;100.00;99380.22;713822;1202;114248;-74
2021/11/21 03:59:09;;;;;;;24.70;11.35;;;;;;;9.82;100.00;99360.70;713917;1175;114684;-74
2021/11/21 04:14:12;;;;;;;19.85;10.53;;;;;;;9.77;100.00;99352.48;714053;1203;114296;-73
2021/11/21 04:29:15;;;;;;;19.73;9.25;;;;;;;9.79;100.00;99352.32;713979;1197;114101;-74
2021/11/21 04:44:17;;;;;;;21.28;10.90;;;;;;;9.72;100.00;99336.40;713902;1200;113459;-74
2021/11/21 04:59:20;;;;;;;25.68;11.83;;;;;;;9.73;100.00;99319.72;713730;1181;113703;-74
2021/11/21 05:14:23;;;;;;;33.65;15.38;;;;;;;9.71;100.00;99319.03;713814;1203;114489;-73
2021/11/21 05:29:25;;;;;;;63.70;25.45;;;;;;;9.71;100.00;99292.84;713705;1201;113798;-74
2021/11/21 05:44:28;;;;;;;21.23;12.00;;;;;;;9.69;100.00;99284.34;713788;1203;113721;-74
2021/11/21 05:59:30;;;;;;;22.98;11.75;;;;;;;9.60;100.00;99270.36;713607;1203;113727;-75
2021/11/21 06:14:33;;;;;;;22.70;10.28;;;;;;;9.72;100.00;99268.30;713667;1200;114033;-74
2021/11/21 06:29:36;;;;;;;22.00;11.55;;;;;;;9.85;100.00;99269.70;713928;1203;115204;-74
2021/11/21 06:44:39;;;;;;;24.18;12.28;;;;;;;9.88;100.00;99277.25;713744;1178;114536;-74
2021/11/21 06:59:42;;;;;;;25.58;11.30;;;;;;;9.92;100.00;99271.52;714056;1200;114886;-74
2021/11/21 07:14:45;;;;;;;17.83;8.90;;;;;;;9.94;100.00;99248.63;713700;1199;114212;-74
2021/11/21 07:29:48;;;;;;;23.23;11.80;;;;;;;9.86;100.00;99255.61;713858;1200;114001;-74
2021/11/21 07:44:50;;;;;;;22.53;13.60;;;;;;;9.94;100.00;99260.91;713837;1189;113905;-74
2021/11/21 07:59:52;;;;;;;20.23;9.68;;;;;;;9.89;100.00;99274.46;713932;1176;113522;-73
2021/11/21 08:14:55;;;;;;;19.37;9.93;;;;;;;9.80;100.00;99284.06;714380;1203;113509;-73
2021/11/21 08:29:57;;;;;;;15.25;9.38;;;;;;;9.73;100.00;99280.43;714509;1202;114044;-74
2021/11/21 08:45:00;;;;;;;21.08;12.23;;;;;;;9.86;100.00;99273.94;714224;1193;113613;-74
2021/11/21 09:00:07;;;;;;;19.38;10.93;;;;;;;10.02;100.00;99288.93;714252;1202;113840;-74
2021/11/21 09:15:14;;;;;;;24.40;13.00;;;;;;;10.15;100.00;99284.91;714518;1202;114817;-72
2021/11/21 09:30:17;;;;;;;24.98;13.05;;;;;;;10.20;100.00;99273.98;714588;1199;114357;-73
2021/11/21 09:45:20;;;;;;;27.53;14.85;;;;;;;10.15;100.00;99263.14;714593;1202;114574;-71
2021/11/21 10:00:25;;;;;;;25.98;14.20;;;;;;;10.21;100.00;99270.35;714543;1199;114825;-73
2021/11/21 10:15:27;;;;;;;38.75;18.50;;;;;;;10.22;100.00;99263.33;715532;1200;114131;-74
2021/11/21 10:30:30;;;;;;;42.03;25.15;;;;;;;10.27;100.00;99267.11;715265;1202;114954;-74
2021/11/21 10:45:34;;;;;;;53.90;30.88;;;;;;;10.13;100.00;99265.89;714898;1177;114074;-75
2021/11/21 11:00:38;;;;;;;24.83;13.30;;;;;;;10.12;100.00;99264.27;714410;1199;114910;-76
2021/11/21 11:15:49;;;;;;;24.50;12.38;;;;;;;10.18;100.00;99272.48;715652;1178;114267;-77
2021/11/21 11:30:53;;;;;;;21.05;11.30;;;;;;;10.26;100.00;99267.27;714607;1200;114814;-74
2021/11/21 11:45:59;;;;;;;17.83;9.40;;;;;;;10.21;100.00;99282.65;714394;1203;115733;-74
2021/11/21 12:01:01;;;;;;;30.03;13.63;;;;;;;10.26;100.00;99285.62;714782;1200;114526;-74
2021/11/21 12:16:17;;;;;;;22.17;12.33;;;;;;;10.38;100.00;99281.75;715027;1202;113970;-74
2021/11/21 12:31:35;;;;;;;19.10;10.27;;;;;;;10.41;100.00;99286.70;715154;1191;114467;-74
2021/11/21 12:46:38;;;;;;;22.58;11.60;;;;;;;10.35;100.00;99289.95;715472;1177;113890;-74
2021/11/21 13:01:41;;;;;;;31.80;12.10;;;;;;;9.78;100.00;99335.80;715095;1174;113266;-74
2021/11/21 13:16:43;;;;;;;59.73;25.70;;;;;;;9.38;100.00;99337.11;714981;1176;115091;-74
2021/11/21 13:31:46;;;;;;;25.90;13.38;;;;;;;9.18;100.00;99360.00;714936;1200;114417;-73
2021/11/21 13:46:59;;;;;;;46.03;20.07;;;;;;;9.38;100.00;99370.33;715814;1200;113696;-74
2021/11/21 14:02:04;;;;;;;58.35;16.50;;;;;;;9.33;100.00;99374.22;715555;1199;114714;-74
2021/11/21 14:17:08;;;;;;;49.30;17.48;;;;;;;9.24;100.00;99390.01;714896;1200;113695;-75
2021/11/21 14:32:15;;;;;;;31.88;14.63;;;;;;;9.18;100.00;99411.52;715388;1200;113711;-74
2021/11/21 14:47:20;;;;;;;31.73;15.55;;;;;;;9.05;100.00;99411.87;715105;1181;113854;-74
2021/11/21 15:02:23;;;;;;;25.00;10.77;;;;;;;8.93;100.00;99425.13;714830;1185;114836;-75
2021/11/21 15:17:26;;;;;;;18.30;8.43;;;;;;;8.72;100.00;99456.75;714919;1203;114463;-74
2021/11/21 15:32:30;;;;;;;121.83;37.10;;;;;;;8.50;100.00;99460.56;714664;1177;113535;-73
2021/11/21 15:47:34;;;;;;;72.83;27.53;;;;;;;8.35;100.00;99483.66;715073;1177;113912;-73
2021/11/21 16:02:37;;;;;;;60.13;25.23;;;;;;;8.22;100.00;99498.80;715582;1182;113885;-75
2021/11/21 16:17:40;;;;;;;96.70;44.50;;;;;;;8.18;100.00;99508.70;714921;1178;113963;-75
2021/11/21 16:32:43;;;;;;;76.10;26.08;;;;;;;8.10;100.00;99517.26;715300;1181;113971;-75
2021/11/21 16:47:46;;;;;;;87.45;34.53;;;;;;;7.96;100.00;99549.01;714525;1199;113923;-74
2021/11/21 17:02:48;;;;;;;121.23;45.60;;;;;;;7.88;100.00;99570.58;714603;1202;115085;-73
2021/11/21 17:17:52;;;;;;;84.47;37.07;;;;;;;7.84;100.00;99590.09;714940;1175;114025;-74
2021/11/21 17:32:56;;;;;;;67.45;31.18;;;;;;;7.81;100.00;99612.08;714655;1176;114014;-75
2021/11/21 17:47:59;;;;;;;117.13;46.07;;;;;;;7.91;100.00;99634.77;714856;1200;114634;-71
2021/11/21 18:03:01;;;;;;;41.10;17.23;;;;;;;7.97;100.00;99652.50;714817;1202;114810;-72
2021/11/21 18:18:04;;;;;;;45.63;16.53;;;;;;;8.04;100.00;99661.47;715194;1177;114151;-71
2021/11/21 18:33:07;;;;;;;167.15;52.50;;;;;;;8.04;100.00;99679.76;714725;1203;115046;-71
2021/11/21 18:48:09;;;;;;;163.55;53.73;;;;;;;7.98;100.00;99712.47;714867;1178;114639;-71
2021/11/21 19:03:13;;;;;;;75.00;27.93;;;;;;;7.99;100.00;99724.55;714933;1177;113971;-75
2021/11/21 19:18:17;;;;;;;43.90;18.55;;;;;;;8.11;100.00;99748.78;714971;1200;114243;-74
2021/11/21 19:33:19;;;;;;;69.53;26.50;;;;;;;8.09;100.00;99773.39;714895;1203;114323;-73
2021/11/21 19:48:21;;;;;;;31.70;13.85;;;;;;;8.14;100.00;99803.41;714581;1180;113878;-74
2021/11/21 20:03:24;;;;;;;51.98;18.65;;;;;;;8.08;100.00;99814.38;714769;1202;113834;-74
2021/11/21 20:18:27;;;;;;;31.15;14.18;;;;;;;8.07;100.00;99827.57;714804;1192;113653;-71
2021/11/21 20:48:50;;;;;;;25.35;10.55;;;;;;;8.13;100.00;99877.52;714347;1203;113830;-73
2021/11/21 21:03:53;;;;;;;22.48;9.65;;;;;;;8.12;100.00;99895.94;713815;1202;114355;-73
2021/11/21 21:19:01;;;;;;;39.85;12.25;;;;;;;8.09;100.00;99904.86;713870;1199;113641;-73
2021/11/21 21:34:08;;;;;;;21.10;8.85;;;;;;;8.00;100.00;99921.30;713810;1200;114792;-74
2021/11/21 21:49:15;;;;;;;33.00;12.15;;;;;;;7.97;100.00;99956.34;713581;1203;115314;-73
2021/11/21 22:04:18;;;;;;;32.13;12.45;;;;;;;7.89;100.00;99963.14;713780;1178;113810;-74
2021/11/21 22:19:21;;;;;;;30.20;14.43;;;;;;;7.86;100.00;99974.67;713701;1177;113690;-74
2021/11/21 22:34:24;;;;;;;25.53;10.43;;;;;;;7.69;100.00;99994.31;713734;1200;113884;-74
2021/11/21 22:49:26;;;;;;;24.88;10.33;;;;;;;7.73;100.00;100007.95;713752;1179;115177;-73
2021/11/21 23:04:30;;;;;;;35.08;12.48;;;;;;;7.73;100.00;100027.05;713676;1199;114022;-74
2021/11/21 23:19:32;;;;;;;60.70;23.50;;;;;;;7.62;100.00;100040.16;713804;1190;114147;-74
2021/11/21 23:34:35;;;;;;;73.45;27.40;;;;;;;7.56;100.00;100040.63;713821;1202;114774;-73
2021/11/21 23:49:37;;;;;;;23.30;10.25;;;;;;;7.47;100.00;100048.25;714119;1202;113707;-74
